Impacts METAR Board
IDs:

KPDX - Portland Intl Arpt, OR, US

Updated at: 0400 UTC 22 Apr 2018
Potential Impact None Slight Moderate High
Time 21/16Z 21/17Z 21/18Z 21/19Z 21/20Z 21/21Z 21/22Z 21/23Z 22/00Z 22/01Z 22/02Z 22/03Z 22/04Z
Temp51 53 54 57 58 59 61 62 63 61 59 56 53
Dewpt37 34 34 34 34 32 32 33 32 35 33 37 38
Altim30.42 30.43 30.44 30.43 30.42 30.42 30.40 30.38 30.37 30.37 30.37 30.37 30.38
VIS10 10 10 10 10 10 10 10 10 10 10 10 10
CIG-- -- 48 40 -- -- -- -- -- -- -- -- --
CoverSCTSCTBKNBKNSCTSCTSCTSCTFEWFEWFEWFEWFEW
FltCatVFRVFRVFRVFRVFRVFRVFRVFRVFRVFRVFRVFRVFR
WX--------------------------
WDir3203203203100310300310300360360340340
WSpd9 7 4 5 5 4 8 9 9 6 8 7 8
WGst-- -- -- -- -- -- -- -- -- -- -- -- --
Raw hourly METARs
KPDX 211553Z 32009KT 10SM FEW020 SCT040 11/03 A3042 RMK AO2 SLP299 T01060028
KPDX 211653Z 32007KT 10SM SCT035 SCT050 12/01 A3043 RMK AO2 SLP304 T01170011
KPDX 211753Z 32004KT 10SM BKN048 12/01 A3044 RMK AO2 SLP308 T01220011 10128 20094 51015
KPDX 211853Z 31005KT 10SM BKN040 14/01 A3043 RMK AO2 SLP305 T01390011
KPDX 211953Z VRB05KT 10SM SCT050 14/01 A3042 RMK AO2 SLP300 T01440011
KPDX 212053Z 31004KT 10SM SCT055 SCT250 15/00 A3042 RMK AO2 SLP298 CCSL N AND S-W T01500000 56009
KPDX 212153Z 30008KT 10SM FEW060 SCT190 16/00 A3040 RMK AO2 SLP293 CCSL E-S-W T01610000
KPDX 212253Z 31009KT 10SM FEW060 SCT180 17/01 A3038 RMK AO2 SLP287 CCSL E-S-SE T01670006
KPDX 212353Z 30009KT 10SM FEW070 FEW180 17/00 A3037 RMK AO2 SLP284 CCSL NE-E SW-W T01720000 10172 20122 56015
KPDX 220053Z 36006KT 10SM FEW060 FEW080 FEW180 16/02 A3037 RMK AO2 SLP283 T01610017
KPDX 220153Z 36008KT 10SM FEW060 FEW180 15/01 A3037 RMK AO2 SLP282 T01500006
KPDX 220253Z 34007KT 10SM FEW060 FEW250 13/03 A3037 RMK AO2 SLP284 T01330028 55001
KPDX 220353Z 34008KT 10SM FEW060 FEW250 12/03 A3038 RMK AO2 SLP288 T01170033



Page loaded:  04:39 UTC  |   09:39 PM Pacific  |   10:39 PM Mountain  |   11:39 PM Central  |   12:39 AM Eastern

 

ADVISORIES

FORECASTS

FORECASTS

OBSERVATIONS

USER TOOLS

ABOUT US